createdAt,value
2022-12-18T00:01:53.887Z,29.50
2022-12-18T00:06:59.559Z,32.83
2022-12-18T00:17:23.430Z,35.17
2022-12-18T00:22:28.508Z,35.17
2022-12-18T00:27:33.606Z,28.30
2022-12-18T00:32:41.173Z,32.38
2022-12-18T00:37:46.274Z,28.83
2022-12-18T00:43:00.279Z,33.45
2022-12-18T00:48:08.667Z,28.33
2022-12-18T00:53:14.643Z,30.83
2022-12-18T00:58:20.705Z,32.47
2022-12-18T01:03:28.286Z,35.85
2022-12-18T01:08:33.321Z,36.45
2022-12-18T01:13:39.208Z,32.00
2022-12-18T01:18:47.422Z,29.35
2022-12-18T01:23:55.506Z,29.45
2022-12-18T01:29:01.090Z,28.58
2022-12-18T01:34:09.217Z,34.38
2022-12-18T01:39:16.324Z,35.55
2022-12-18T01:44:51.186Z,32.28
2022-12-18T01:49:59.736Z,34.97
2022-12-18T01:55:06.920Z,30.00
2022-12-18T02:00:14.957Z,34.08
2022-12-18T02:05:24.614Z,33.53
2022-12-18T02:10:35.449Z,30.70
2022-12-18T02:15:43.585Z,36.47
2022-12-18T02:20:53.546Z,33.53
2022-12-18T02:26:09.371Z,37.63
2022-12-18T02:31:18.274Z,32.45
2022-12-18T02:36:24.573Z,36.20
2022-12-18T02:41:32.866Z,36.17
2022-12-18T02:46:40.361Z,32.97
2022-12-18T02:51:54.461Z,33.55
2022-12-18T02:57:02.821Z,35.78
2022-12-18T03:02:11.947Z,35.45
2022-12-18T03:07:20.949Z,36.25
2022-12-18T03:12:32.769Z,32.08
2022-12-18T03:17:38.514Z,33.30
2022-12-18T03:22:45.991Z,29.83
2022-12-18T03:27:57.626Z,28.83
2022-12-18T03:33:07.004Z,36.95
2022-12-18T03:38:12.275Z,31.35
2022-12-18T03:43:24.982Z,28.50
2022-12-18T03:48:33.102Z,26.90
2022-12-18T03:53:43.143Z,29.67
2022-12-18T03:58:53.169Z,32.00
2022-12-18T04:03:58.667Z,29.40
2022-12-18T04:09:03.735Z,32.95
2022-12-18T04:14:17.395Z,29.95
2022-12-18T04:19:23.099Z,31.35
2022-12-18T04:24:28.142Z,31.75
2022-12-18T04:29:35.825Z,36.03
2022-12-18T04:34:40.830Z,34.75
2022-12-18T04:39:45.812Z,30.48
2022-12-18T04:44:53.393Z,32.65
2022-12-18T04:49:58.417Z,32.50
2022-12-18T04:55:03.373Z,31.02
2022-12-18T05:00:12.660Z,26.55
2022-12-18T05:05:18.020Z,32.00
2022-12-18T05:10:23.025Z,31.83
2022-12-18T05:15:31.950Z,34.70
2022-12-18T05:20:37.014Z,35.92
2022-12-18T05:25:42.038Z,29.80
2022-12-18T05:30:52.087Z,33.60
2022-12-18T05:35:57.502Z,29.75
2022-12-18T05:41:02.799Z,35.70
2022-12-18T05:46:12.173Z,35.88
2022-12-18T05:51:19.163Z,37.90
2022-12-18T05:56:25.693Z,37.83
2022-12-18T06:01:33.287Z,31.58
2022-12-18T06:06:38.430Z,38.20
2022-12-18T06:11:43.993Z,38.95
2022-12-18T06:16:51.507Z,41.03
2022-12-18T06:21:58.931Z,41.00
2022-12-18T06:27:03.923Z,43.35
2022-12-18T06:32:11.940Z,37.70
2022-12-18T06:37:16.873Z,43.63
2022-12-18T06:42:21.856Z,43.97
2022-12-18T06:47:29.734Z,41.28
2022-12-18T06:52:35.919Z,47.38
2022-12-18T06:57:41.674Z,59.63
2022-12-18T07:02:49.509Z,56.45
2022-12-18T07:07:54.750Z,64.85
2022-12-18T07:13:00.244Z,51.85
2022-12-18T07:18:08.092Z,48.22
2022-12-18T07:23:12.964Z,43.08
2022-12-18T07:28:17.915Z,44.25
2022-12-18T07:33:25.510Z,47.45
2022-12-18T07:38:30.470Z,46.90
2022-12-18T07:43:37.156Z,58.50
2022-12-18T07:48:46.205Z,48.70
2022-12-18T07:53:55.289Z,41.70
2022-12-18T07:59:00.766Z,38.45
2022-12-18T08:04:08.514Z,38.10
2022-12-18T08:09:14.795Z,42.40
2022-12-18T08:14:19.949Z,36.08
2022-12-18T08:19:27.774Z,41.38
2022-12-18T08:24:35.159Z,46.60
2022-12-18T08:29:40.384Z,46.47
2022-12-18T08:34:48.112Z,41.25
2022-12-18T08:39:53.295Z,41.00
2022-12-18T08:44:58.739Z,42.97
2022-12-18T08:50:07.890Z,46.25
2022-12-18T08:55:15.744Z,43.83
2022-12-18T09:00:22.137Z,42.63
2022-12-18T09:05:30.381Z,47.28
2022-12-18T09:10:41.722Z,44.20
2022-12-18T09:15:53.102Z,46.30
2022-12-18T09:21:01.430Z,44.20
2022-12-18T09:26:07.303Z,47.55
2022-12-18T09:31:17.647Z,43.60
2022-12-18T09:36:25.846Z,41.78
2022-12-18T09:41:41.737Z,42.40
2022-12-18T09:46:50.924Z,47.03
2022-12-18T09:52:04.960Z,45.05
2022-12-18T09:57:12.546Z,46.65
2022-12-18T10:02:20.838Z,59.65
2022-12-18T10:07:37.210Z,57.70
2022-12-18T10:12:47.057Z,48.72
2022-12-18T10:17:58.885Z,50.90
2022-12-18T10:23:11.535Z,58.80
2022-12-18T10:28:19.242Z,48.38
2022-12-18T10:33:26.964Z,48.38
2022-12-18T10:38:36.294Z,46.05
2022-12-18T10:43:43.814Z,52.45
2022-12-18T10:48:56.973Z,47.95
2022-12-18T10:54:08.409Z,42.33
2022-12-18T10:59:18.518Z,42.90
2022-12-18T11:04:26.211Z,47.63
2022-12-18T11:09:36.259Z,48.75
2022-12-18T11:14:47.825Z,67.82
2022-12-18T11:20:00.539Z,53.67
2022-12-18T11:30:38.242Z,54.10
2022-12-18T11:35:48.725Z,51.42
2022-12-18T11:41:01.257Z,56.97
2022-12-18T11:46:14.738Z,51.33
2022-12-18T11:51:28.275Z,66.93
2022-12-18T11:56:51.768Z,62.05
2022-12-18T12:02:02.440Z,53.40
2022-12-18T12:07:18.291Z,52.47
2022-12-18T12:12:49.172Z,49.75
2022-12-18T12:17:57.539Z,51.60
2022-12-18T12:23:06.388Z,48.58
2022-12-18T12:33:39.659Z,45.88
2022-12-18T12:38:51.943Z,48.42
2022-12-18T12:44:01.321Z,55.63
2022-12-18T12:49:11.035Z,52.65
2022-12-18T12:54:22.718Z,59.08
2022-12-18T12:59:35.905Z,61.58
2022-12-18T13:04:48.827Z,54.63
2022-12-18T13:10:25.721Z,76.53
2022-12-18T13:15:46.896Z,54.97
2022-12-18T13:20:58.579Z,63.40
2022-12-18T13:26:37.722Z,64.72
2022-12-18T13:32:34.028Z,79.68
2022-12-18T13:37:56.770Z,54.08
2022-12-18T13:43:17.665Z,68.18
2022-12-18T13:48:26.412Z,59.17
2022-12-18T13:53:39.095Z,69.88
2022-12-18T13:58:45.728Z,83.38
2022-12-18T14:03:53.735Z,73.75
2022-12-18T14:09:02.621Z,71.55
2022-12-18T14:14:09.283Z,72.68
2022-12-18T14:19:17.783Z,78.97
2022-12-18T14:24:26.975Z,87.65
2022-12-18T14:29:34.598Z,75.40
2022-12-18T14:34:40.332Z,75.75
2022-12-18T14:39:57.124Z,64.07
2022-12-18T14:45:37.495Z,63.58
2022-12-18T14:50:47.257Z,75.47
2022-12-18T14:55:56.883Z,71.63
2022-12-18T15:01:02.960Z,74.43
2022-12-18T15:06:21.498Z,74.25
2022-12-18T15:11:41.171Z,77.40
2022-12-18T15:16:46.826Z,70.20
2022-12-18T15:21:52.444Z,63.35
2022-12-18T15:27:00.787Z,67.18
2022-12-18T15:32:08.335Z,68.28
2022-12-18T15:37:14.521Z,70.57
2022-12-18T15:42:35.074Z,65.10
2022-12-18T15:47:40.746Z,64.88
2022-12-18T15:52:48.908Z,71.30
2022-12-18T15:57:58.152Z,70.15
2022-12-18T16:03:04.043Z,69.55
2022-12-18T16:08:09.853Z,68.50
2022-12-18T16:13:20.982Z,72.13
2022-12-18T16:18:26.713Z,66.30
2022-12-18T16:23:32.512Z,67.03
2022-12-18T16:28:48.135Z,73.80
2022-12-18T16:33:54.058Z,64.28
2022-12-18T16:39:00.076Z,64.15
2022-12-18T16:44:08.612Z,69.35
2022-12-18T16:49:17.548Z,82.88
2022-12-18T16:59:32.786Z,72.57
2022-12-18T17:04:39.302Z,69.35
2022-12-18T17:09:45.531Z,69.20
2022-12-18T17:14:54.035Z,85.35
2022-12-18T17:20:13.928Z,79.30
2022-12-18T17:25:20.430Z,75.38
2022-12-18T17:30:28.911Z,74.35
2022-12-18T17:35:35.038Z,72.97
2022-12-18T17:40:46.087Z,73.82
2022-12-18T17:45:55.020Z,78.47
2022-12-18T17:51:04.619Z,72.30
2022-12-18T17:56:11.643Z,80.38
2022-12-18T18:01:27.421Z,82.65
2022-12-18T18:06:37.247Z,129.07
2022-12-18T18:12:00.467Z,123.95
2022-12-18T18:22:15.094Z,92.47
2022-12-18T18:27:20.985Z,90.97
2022-12-18T18:32:29.789Z,99.00
2022-12-18T18:37:35.524Z,73.43
2022-12-18T18:42:41.342Z,66.18
2022-12-18T18:47:49.747Z,80.82
2022-12-18T18:52:57.049Z,76.50
2022-12-18T18:58:02.893Z,101.25
2022-12-18T19:03:13.291Z,93.35
2022-12-18T19:08:19.145Z,87.40
2022-12-18T19:13:25.966Z,69.00
2022-12-18T19:18:34.843Z,92.68
2022-12-18T19:23:40.707Z,87.03
2022-12-18T19:28:46.734Z,97.90
2022-12-18T19:33:55.164Z,69.05
2022-12-18T19:39:02.769Z,77.22
2022-12-18T19:44:12.845Z,77.45
2022-12-18T19:49:21.252Z,74.57
2022-12-18T19:54:27.793Z,73.88
2022-12-18T19:59:33.524Z,90.53
2022-12-18T20:04:41.940Z,89.03
2022-12-18T20:09:47.687Z,152.27
2022-12-18T20:14:54.966Z,114.00
2022-12-18T20:20:03.926Z,90.22
2022-12-18T20:25:11.951Z,100.30
2022-12-18T20:30:18.088Z,99.47
2022-12-18T20:35:29.524Z,96.28
2022-12-18T20:40:36.142Z,98.50
2022-12-18T20:45:42.972Z,123.47
2022-12-18T20:51:03.646Z,160.18
2022-12-18T20:56:12.061Z,116.78
2022-12-18T21:01:20.173Z,82.93
2022-12-18T21:06:28.738Z,86.50
2022-12-18T21:11:49.105Z,84.45
2022-12-18T21:16:58.087Z,87.80
2022-12-18T21:22:06.830Z,87.13
2022-12-18T21:27:13.069Z,83.45
2022-12-18T21:32:22.080Z,94.78
2022-12-18T21:37:33.066Z,89.93
2022-12-18T21:42:52.125Z,96.20
2022-12-18T21:48:01.233Z,87.85
2022-12-18T21:53:10.298Z,93.55
2022-12-18T22:03:21.995Z,77.82
2022-12-18T22:08:31.248Z,89.72
2022-12-18T22:13:37.367Z,95.60
2022-12-18T22:18:43.059Z,106.03
2022-12-18T22:23:56.475Z,95.55
2022-12-18T22:29:15.028Z,83.50
2022-12-18T22:34:23.199Z,74.60
2022-12-18T22:39:33.001Z,73.30
2022-12-18T22:44:40.183Z,78.22
2022-12-18T22:49:45.973Z,92.57
2022-12-18T22:54:54.885Z,89.35
2022-12-18T23:00:01.263Z,80.00
2022-12-18T23:05:07.032Z,84.63
2022-12-18T23:10:15.523Z,82.82
2022-12-18T23:15:24.450Z,93.22
2022-12-18T23:20:33.649Z,92.50
2022-12-18T23:25:41.922Z,82.07
2022-12-18T23:30:47.060Z,80.72
2022-12-18T23:35:52.167Z,85.53
2022-12-18T23:41:00.312Z,87.95
2022-12-18T23:46:05.464Z,141.82
2022-12-18T23:51:12.418Z,133.50
2022-12-18T23:56:20.145Z,111.68
